Time;durP1;ratioP1;P1;durP2;ratioP2;P2;SDS_P1;SDS_P2;PMS_P1;PMS_P2;Temp;Humidity;BMP_temperature;BMP_pressure;BME280_temperature;BME280_humidity;BME280_pressure;Samples;Min_cycle;Max_cycle;Signal;HPM_P1;HPM_P2
2022/02/12 00:00:26;;;;;;;19.75;8.50;;;0.90;62.40;;;;;;5070443;28;20399;-75
2022/02/12 00:02:53;;;;;;;25.63;8.90;;;1.00;62.00;;;;;;5068739;28;20398;-74
2022/02/12 00:05:20;;;;;;;18.85;7.50;;;0.90;60.90;;;;;;5071753;28;20441;-75
2022/02/12 00:07:46;;;;;;;25.48;7.90;;;0.90;59.70;;;;;;5062889;28;20397;-76
2022/02/12 00:10:12;;;;;;;23.90;9.05;;;1.10;59.20;;;;;;5055167;28;20760;-77
2022/02/12 00:12:37;;;;;;;20.05;8.43;;;1.20;58.30;;;;;;5058695;28;20389;-75
2022/02/12 00:15:03;;;;;;;22.63;8.40;;;1.10;55.60;;;;;;5074462;28;20877;-76
2022/02/12 00:17:29;;;;;;;26.77;9.65;;;1.10;56.20;;;;;;5078620;28;20400;-77
2022/02/12 00:19:54;;;;;;;19.50;9.57;;;1.10;55.70;;;;;;5079240;28;20384;-76
2022/02/12 00:22:20;;;;;;;23.17;8.88;;;1.00;55.00;;;;;;5074423;28;20494;-75
2022/02/12 00:24:46;;;;;;;22.90;8.88;;;1.00;57.20;;;;;;5073428;28;20397;-75
2022/02/12 00:27:11;;;;;;;23.97;9.20;;;1.10;54.20;;;;;;5073463;28;20394;-75
2022/02/12 00:29:37;;;;;;;25.77;9.57;;;1.10;53.80;;;;;;5058192;28;20882;-76
2022/02/12 00:32:03;;;;;;;22.07;7.80;;;1.00;55.30;;;;;;5057385;28;20934;-76
2022/02/12 00:34:28;;;;;;;24.20;8.52;;;1.00;55.40;;;;;;5062843;28;20175;-74
2022/02/12 00:36:54;;;;;;;19.60;7.87;;;1.10;57.30;;;;;;5062461;28;20216;-75
2022/02/12 00:39:19;;;;;;;26.97;9.80;;;1.00;56.20;;;;;;5053560;28;20432;-76
2022/02/12 00:41:45;;;;;;;24.65;10.30;;;1.00;55.40;;;;;;5075454;28;20384;-76
2022/02/12 00:44:11;;;;;;;21.27;10.40;;;1.00;56.70;;;;;;5080708;28;20387;-74
2022/02/12 00:46:36;;;;;;;24.37;10.20;;;0.90;56.50;;;;;;5071760;28;20478;-75
2022/02/12 00:49:06;;;;;;;27.37;10.50;;;0.80;57.00;;;;;;5071986;28;20758;-76
2022/02/12 00:51:32;;;;;;;32.20;11.27;;;0.80;58.50;;;;;;5075074;28;20841;-74
2022/02/12 00:53:58;;;;;;;27.13;10.60;;;0.80;57.60;;;;;;5074020;28;20419;-75
2022/02/12 00:56:24;;;;;;;35.77;10.90;;;0.80;58.10;;;;;;5082665;28;20403;-75
2022/02/12 00:58:51;;;;;;;27.65;10.90;;;0.80;58.30;;;;;;5062259;28;20449;-75
2022/02/12 01:01:17;;;;;;;28.02;10.80;;;0.80;58.60;;;;;;5056396;28;20799;-74
2022/02/12 01:03:43;;;;;;;29.70;11.17;;;0.70;58.80;;;;;;5070328;28;20597;-77
2022/02/12 01:06:08;;;;;;;31.55;9.40;;;0.70;58.90;;;;;;5073353;28;20760;-74
2022/02/12 01:08:34;;;;;;;26.33;11.00;;;0.70;60.80;;;;;;5075158;28;20395;-76
2022/02/12 01:11:00;;;;;;;26.83;11.50;;;0.70;59.30;;;;;;5072284;28;20380;-76
2022/02/12 01:13:25;;;;;;;28.30;10.90;;;0.60;60.70;;;;;;5052812;28;20389;-75
2022/02/12 01:15:51;;;;;;;24.50;10.98;;;0.80;62.40;;;;;;5055954;28;20381;-76
2022/02/12 01:18:17;;;;;;;33.83;11.80;;;0.70;60.50;;;;;;5052324;28;20382;-76
2022/02/12 01:20:42;;;;;;;31.60;10.43;;;0.70;61.40;;;;;;5056427;28;20877;-76
2022/02/12 01:23:08;;;;;;;28.90;10.05;;;0.70;61.00;;;;;;5071001;28;20558;-75
2022/02/12 01:25:34;;;;;;;28.90;10.18;;;0.70;61.10;;;;;;5068318;28;20397;-76
2022/02/12 01:27:59;;;;;;;28.20;11.18;;;0.80;60.10;;;;;;5071215;28;20409;-75
2022/02/12 01:30:26;;;;;;;34.00;10.53;;;0.80;60.20;;;;;;5072094;28;20387;-76
2022/02/12 01:32:52;;;;;;;25.67;10.93;;;0.70;61.00;;;;;;5071356;28;20499;-76
2022/02/12 01:35:19;;;;;;;26.52;10.98;;;0.70;61.90;;;;;;5072111;28;20415;-75
2022/02/12 01:37:45;;;;;;;26.23;10.35;;;0.60;62.10;;;;;;5071383;28;20403;-75
2022/02/12 01:40:11;;;;;;;21.60;10.02;;;0.70;63.80;;;;;;5061970;28;20389;-75
2022/02/12 01:42:37;;;;;;;32.28;11.15;;;0.80;63.80;;;;;;5068974;28;20384;-75
2022/02/12 01:45:03;;;;;;;27.03;10.03;;;0.60;62.80;;;;;;5072396;28;20832;-75
2022/02/12 01:47:29;;;;;;;29.13;10.85;;;0.60;62.10;;;;;;5072288;28;20499;-75
2022/02/12 01:49:55;;;;;;;35.05;11.48;;;0.60;62.20;;;;;;5072456;28;20426;-76
2022/02/12 01:52:22;;;;;;;35.72;11.05;;;0.50;63.70;;;;;;5072158;28;20388;-76
2022/02/12 01:54:49;;;;;;;25.75;10.60;;;0.60;62.10;;;;;;5073732;28;20423;-76
2022/02/12 01:57:15;;;;;;;26.23;10.23;;;0.60;62.30;;;;;;5073962;28;20418;-76
2022/02/12 01:59:40;;;;;;;28.30;10.20;;;0.60;63.30;;;;;;5074798;28;20380;-76
2022/02/12 02:02:07;;;;;;;23.90;9.73;;;0.70;63.70;;;;;;5075469;28;20375;-75
2022/02/12 02:04:34;;;;;;;33.00;10.43;;;0.70;63.30;;;;;;5074627;28;20483;-75
2022/02/12 02:06:59;;;;;;;24.63;10.65;;;0.60;61.60;;;;;;5073311;28;20422;-75
2022/02/12 02:09:28;;;;;;;23.75;9.90;;;0.50;62.50;;;;;;5074113;28;20391;-75
2022/02/12 02:11:54;;;;;;;23.50;10.25;;;0.60;61.70;;;;;;5073945;28;20756;-76
2022/02/12 02:14:29;;;;;;;31.25;10.40;;;0.70;62.10;;;;;;5074899;28;20466;-76
2022/02/12 02:16:54;;;;;;;23.23;9.70;;;0.60;60.60;;;;;;5074165;28;20456;-76
2022/02/12 02:19:20;;;;;;;28.67;10.20;;;0.60;61.00;;;;;;5073218;28;20786;-76
2022/02/12 02:21:47;;;;;;;27.90;9.80;;;0.50;63.50;;;;;;5070152;28;20406;-75
2022/02/12 02:24:17;;;;;;;32.72;10.27;;;0.60;61.60;;;;;;5071932;28;20376;-76
2022/02/12 02:26:43;;;;;;;29.65;10.00;;;0.60;60.30;;;;;;5071144;28;20474;-76
2022/02/12 02:29:09;;;;;;;29.27;9.63;;;0.60;60.20;;;;;;5071375;28;20884;-77
2022/02/12 02:31:35;;;;;;;28.63;9.20;;;0.60;60.60;;;;;;5069158;28;20866;-75
2022/02/12 02:34:11;;;;;;;32.55;9.57;;;0.50;60.70;;;;;;5070973;28;20387;-75
2022/02/12 02:36:37;;;;;;;21.25;8.32;;;0.50;61.00;;;;;;5071244;28;20757;-76
2022/02/12 02:39:04;;;;;;;24.88;9.13;;;0.70;60.70;;;;;;5071288;28;20482;-76
2022/02/12 02:41:30;;;;;;;26.57;9.03;;;0.60;60.30;;;;;;5069797;28;20902;-76
2022/02/12 02:43:56;;;;;;;24.65;8.95;;;0.70;59.40;;;;;;5070928;28;20382;-75
2022/02/12 02:46:21;;;;;;;24.90;8.70;;;0.60;57.90;;;;;;5067609;28;20465;-76
2022/02/12 02:48:47;;;;;;;21.63;9.00;;;0.60;60.30;;;;;;5077124;28;20383;-75
2022/02/12 02:56:42;;;;;;;31.13;8.27;;;0.50;59.80;;;;;;5092235;28;20437;-75
2022/02/12 02:59:08;;;;;;;27.17;9.20;;;0.50;62.50;;;;;;5081357;28;20397;-75
2022/02/12 03:01:35;;;;;;;17.03;7.63;;;0.50;59.10;;;;;;5071119;28;20408;-75
2022/02/12 03:04:01;;;;;;;28.45;8.70;;;0.50;58.80;;;;;;5081636;28;20465;-75
2022/02/12 03:06:27;;;;;;;18.77;7.95;;;0.50;58.80;;;;;;5090992;28;20393;-74
2022/02/12 03:08:54;;;;;;;26.05;9.20;;;0.50;58.30;;;;;;5090948;28;20386;-75
2022/02/12 03:11:20;;;;;;;26.25;8.07;;;0.50;59.20;;;;;;5093335;28;20394;-75
2022/02/12 03:13:48;;;;;;;22.13;8.17;;;0.50;58.60;;;;;;5075687;28;20406;-75
2022/02/12 03:16:14;;;;;;;32.77;7.93;;;0.50;57.80;;;;;;5074260;28;20769;-74
2022/02/12 03:18:41;;;;;;;24.43;8.37;;;0.60;60.40;;;;;;5074570;28;20387;-77
2022/02/12 03:21:07;;;;;;;22.25;7.82;;;0.60;58.20;;;;;;5074530;28;20380;-74
2022/02/12 03:23:34;;;;;;;27.03;7.67;;;0.50;57.80;;;;;;5074616;28;20383;-75
2022/02/12 03:25:59;;;;;;;24.98;8.23;;;0.50;58.40;;;;;;5074349;28;20387;-75
2022/02/12 03:28:25;;;;;;;25.95;8.02;;;0.60;57.90;;;;;;5076629;28;20441;-74
2022/02/12 03:30:51;;;;;;;23.92;7.43;;;0.60;57.70;;;;;;5078125;28;20421;-76
2022/02/12 03:33:17;;;;;;;19.52;7.50;;;0.60;57.30;;;;;;5078674;28;20386;-75
2022/02/12 03:35:44;;;;;;;26.38;7.57;;;0.70;57.70;;;;;;5083322;28;20387;-74
2022/02/12 03:38:18;;;;;;;19.25;7.50;;;0.50;56.80;;;;;;5083780;28;20379;-74
2022/02/12 03:40:46;;;;;;;21.50;7.53;;;0.70;56.60;;;;;;5077379;28;20389;-74
2022/02/12 03:43:12;;;;;;;22.02;6.65;;;0.70;57.30;;;;;;5087980;28;20396;-74
2022/02/12 03:45:39;;;;;;;17.83;7.45;;;0.70;55.40;;;;;;5085790;28;20444;-74
2022/02/12 03:48:06;;;;;;;25.13;7.70;;;0.60;55.60;;;;;;5074158;28;20390;-75
2022/02/12 03:50:33;;;;;;;23.52;7.53;;;0.50;56.30;;;;;;5073375;28;20463;-74
2022/02/12 03:53:00;;;;;;;21.63;7.25;;;0.50;57.10;;;;;;5073307;28;20482;-75
2022/02/12 03:55:26;;;;;;;22.30;7.32;;;0.40;57.80;;;;;;5072460;28;20396;-75
2022/02/12 03:57:52;;;;;;;22.88;7.40;;;0.50;57.10;;;;;;5071666;28;20469;-75
2022/02/12 04:00:19;;;;;;;27.40;7.90;;;0.50;58.60;;;;;;5073818;28;20388;-73
2022/02/12 04:02:45;;;;;;;26.70;8.43;;;0.50;58.50;;;;;;5076263;28;20803;-74
2022/02/12 04:05:13;;;;;;;18.20;6.82;;;0.40;57.60;;;;;;5093369;28;20435;-74
2022/02/12 04:07:41;;;;;;;27.25;7.72;;;0.40;59.20;;;;;;5093198;28;20382;-75
2022/02/12 04:10:16;;;;;;;23.25;7.30;;;0.40;57.10;;;;;;5067437;28;20931;-74
2022/02/12 04:12:43;;;;;;;28.20;7.60;;;0.50;59.50;;;;;;5071864;28;20395;-75
2022/02/12 04:15:10;;;;;;;20.42;7.90;;;0.50;56.20;;;;;;5073329;28;20384;-75
2022/02/12 04:17:36;;;;;;;22.77;8.35;;;0.50;56.50;;;;;;5072699;28;20407;-74
2022/02/12 04:20:11;;;;;;;22.38;8.57;;;0.40;57.10;;;;;;5073053;28;20376;-76
2022/02/12 04:22:37;;;;;;;23.60;8.30;;;0.40;57.60;;;;;;5052514;28;20389;-75
2022/02/12 04:25:05;;;;;;;21.10;7.78;;;0.30;57.90;;;;;;5052965;28;20373;-75
2022/02/12 04:27:31;;;;;;;19.07;6.93;;;0.30;58.60;;;;;;5052789;28;20385;-75
2022/02/12 04:29:58;;;;;;;21.15;6.38;;;0.40;58.40;;;;;;5052931;28;20392;-75
2022/02/12 04:32:23;;;;;;;25.52;7.10;;;0.30;57.60;;;;;;5051112;28;20405;-74
2022/02/12 04:34:54;;;;;;;20.38;7.00;;;0.30;59.90;;;;;;5052617;28;20391;-74
2022/02/12 04:37:20;;;;;;;22.48;7.32;;;0.30;57.70;;;;;;5060847;28;20983;-76
2022/02/12 04:39:46;;;;;;;19.85;7.00;;;0.30;58.20;;;;;;5059499;28;20397;-75
2022/02/12 04:42:12;;;;;;;14.23;6.70;;;0.30;58.70;;;;;;5066399;28;20391;-75
2022/02/12 04:44:42;;;;;;;19.13;7.20;;;0.30;58.80;;;;;;5072668;28;20910;-75
2022/02/12 04:47:09;;;;;;;13.43;6.10;;;0.40;57.40;;;;;;5072427;28;20391;-74
2022/02/12 04:49:35;;;;;;;19.65;6.47;;;0.40;57.80;;;;;;5072285;28;20391;-75
2022/02/12 04:52:02;;;;;;;27.45;7.32;;;0.50;59.80;;;;;;5053359;28;20496;-74
2022/02/12 04:54:27;;;;;;;19.00;6.78;;;0.40;57.30;;;;;;5052209;28;20389;-75
2022/02/12 04:56:54;;;;;;;21.08;6.85;;;0.30;58.10;;;;;;5051488;28;20401;-75
2022/02/12 04:59:19;;;;;;;24.58;7.35;;;0.30;57.00;;;;;;5061318;28;20399;-74
2022/02/12 05:01:45;;;;;;;21.27;7.10;;;0.20;58.10;;;;;;5070644;28;20931;-74
2022/02/12 05:04:11;;;;;;;20.70;6.90;;;0.20;59.70;;;;;;5071054;28;20400;-77
2022/02/12 05:06:37;;;;;;;18.73;7.35;;;0.30;57.60;;;;;;5067198;28;20391;-77
2022/02/12 05:09:03;;;;;;;18.10;7.22;;;0.30;58.40;;;;;;5052045;28;20385;-76
2022/02/12 05:11:29;;;;;;;19.83;7.93;;;0.30;58.50;;;;;;5051756;28;20386;-76
2022/02/12 05:13:54;;;;;;;24.35;7.10;;;0.30;58.30;;;;;;5052470;28;20472;-76
2022/02/12 05:16:20;;;;;;;28.90;7.90;;;0.20;57.50;;;;;;5052378;28;20455;-77
2022/02/12 05:18:47;;;;;;;17.75;6.97;;;0.10;59.60;;;;;;5062251;28;20392;-75
2022/02/12 05:21:13;;;;;;;23.38;8.07;;;0.10;61.00;;;;;;5071431;28;20379;-74
2022/02/12 05:23:38;;;;;;;24.00;7.50;;;0.10;59.60;;;;;;5072478;28;20869;-73
2022/02/12 05:26:04;;;;;;;18.98;7.35;;;0.20;62.00;;;;;;5072895;28;20915;-73
2022/02/12 05:28:29;;;;;;;21.73;7.33;;;0.20;61.30;;;;;;5068120;28;20542;-75
2022/02/12 05:30:55;;;;;;;24.43;8.10;;;0.10;61.10;;;;;;5073244;28;20376;-74
2022/02/12 05:33:21;;;;;;;19.70;7.72;;;0.10;60.90;;;;;;5070150;28;20395;-74
2022/02/12 05:35:49;;;;;;;26.38;7.70;;;0.10;62.70;;;;;;5071433;28;20391;-72
2022/02/12 05:38:15;;;;;;;21.20;7.88;;;0.10;61.80;;;;;;5053518;28;20392;-73
2022/02/12 05:40:41;;;;;;;18.50;7.60;;;0.10;64.50;;;;;;5052649;28;20381;-73
2022/02/12 05:43:06;;;;;;;21.53;7.40;;;0.20;62.20;;;;;;5071492;28;20462;-73
2022/02/12 05:45:32;;;;;;;25.10;8.13;;;0.10;61.30;;;;;;5080083;28;20388;-73
2022/02/12 05:48:01;;;;;;;33.15;7.97;;;0.10;61.50;;;;;;5081900;28;20435;-73
2022/02/12 05:50:29;;;;;;;22.63;8.00;;;0.00;65.00;;;;;;5070112;28;20483;-73
2022/02/12 05:52:56;;;;;;;18.65;7.60;;;0.00;63.40;;;;;;5069994;28;20387;-73
2022/02/12 05:55:21;;;;;;;23.08;7.75;;;0.00;65.80;;;;;;5072284;28;20417;-73
2022/02/12 05:57:47;;;;;;;27.33;7.55;;;0.00;64.60;;;;;;5059130;28;21138;-73
2022/02/12 06:00:13;;;;;;;20.33;6.90;;;0.00;65.00;;;;;;5051836;28;20473;-73
2022/02/12 06:02:39;;;;;;;22.95;7.75;;;0.10;63.10;;;;;;5055704;28;20889;-74
2022/02/12 06:05:05;;;;;;;20.37;7.80;;;0.00;65.20;;;;;;5091310;28;20385;-73
2022/02/12 06:07:31;;;;;;;18.05;7.50;;;0.00;64.00;;;;;;5079324;28;20395;-75
2022/02/12 06:09:56;;;;;;;26.20;7.60;;;0.00;64.10;;;;;;5070660;28;20406;-74
2022/02/12 06:12:22;;;;;;;22.13;7.65;;;-0.20;63.60;;;;;;5070782;28;20422;-74
2022/02/12 06:14:47;;;;;;;24.57;7.40;;;0.00;65.70;;;;;;5070869;28;20462;-74
2022/02/12 06:17:13;;;;;;;20.77;6.80;;;-0.10;64.30;;;;;;5062403;28;20401;-74
2022/02/12 06:19:38;;;;;;;21.23;7.13;;;0.00;64.30;;;;;;5057246;28;20404;-74
2022/02/12 06:22:04;;;;;;;20.07;7.50;;;-0.10;63.20;;;;;;5073656;28;20384;-74
2022/02/12 06:24:30;;;;;;;13.73;7.10;;;-0.10;63.60;;;;;;5080760;28;20436;-74
2022/02/12 06:26:57;;;;;;;23.20;7.40;;;-0.10;64.20;;;;;;5071857;28;20903;-74
2022/02/12 06:29:24;;;;;;;18.63;7.50;;;-0.10;63.90;;;;;;5067496;28;20391;-74
2022/02/12 06:31:49;;;;;;;21.60;7.40;;;-0.20;63.90;;;;;;5072169;28;20404;-74
2022/02/12 06:34:15;;;;;;;22.70;6.80;;;-0.20;66.40;;;;;;5073151;28;20402;-73
2022/02/12 06:36:41;;;;;;;21.95;6.82;;;-0.20;64.00;;;;;;5075712;28;20406;-73
2022/02/12 06:39:06;;;;;;;27.03;7.23;;;-0.20;64.10;;;;;;5075901;28;20387;-73
2022/02/12 06:41:32;;;;;;;14.83;6.50;;;-0.20;63.50;;;;;;5077823;28;20463;-73
2022/02/12 06:43:57;;;;;;;19.50;7.03;;;0.00;65.00;;;;;;5080655;28;20413;-73
2022/02/12 06:46:23;;;;;;;22.42;7.72;;;-0.10;61.90;;;;;;5087366;28;20445;-73
2022/02/12 06:48:49;;;;;;;23.67;6.57;;;-0.10;63.20;;;;;;5078311;28;20841;-74
2022/02/12 06:51:17;;;;;;;20.60;6.53;;;0.00;64.00;;;;;;5074655;28;20470;-74
2022/02/12 06:53:43;;;;;;;17.17;6.95;;;0.00;63.00;;;;;;5074631;28;20391;-74
2022/02/12 06:56:09;;;;;;;26.92;6.60;;;0.00;64.60;;;;;;5074386;28;20495;-74
2022/02/12 06:58:35;;;;;;;20.20;6.70;;;0.00;62.00;;;;;;5055669;28;20954;-74
2022/02/12 07:01:01;;;;;;;16.17;6.55;;;0.00;61.10;;;;;;5054225;28;20385;-74
2022/02/12 07:03:27;;;;;;;16.47;6.67;;;-0.10;62.00;;;;;;5072248;28;20390;-73
2022/02/12 07:05:53;;;;;;;19.40;7.18;;;0.00;62.70;;;;;;5094230;28;20404;-73
2022/02/12 07:08:18;;;;;;;20.65;7.20;;;0.20;59.60;;;;;;5077134;28;20376;-73
2022/02/12 07:10:44;;;;;;;24.23;7.30;;;0.20;60.90;;;;;;5073955;28;20411;-73
2022/02/12 07:13:12;;;;;;;17.53;6.40;;;0.20;61.90;;;;;;5074037;28;20593;-73
2022/02/12 07:15:37;;;;;;;15.48;6.88;;;0.20;59.80;;;;;;5073586;28;20388;-73
2022/02/12 07:18:03;;;;;;;21.10;6.45;;;0.30;59.60;;;;;;5072617;28;20430;-72
2022/02/12 07:20:29;;;;;;;19.27;6.43;;;0.20;61.70;;;;;;5074379;28;20835;-72
2022/02/12 07:22:55;;;;;;;23.27;7.65;;;0.30;59.90;;;;;;5073903;28;20376;-73
2022/02/12 07:25:21;;;;;;;16.45;6.28;;;0.40;57.50;;;;;;5074321;28;20384;-73
2022/02/12 07:27:47;;;;;;;20.95;6.85;;;0.50;60.30;;;;;;5067784;28;20393;-72
2022/02/12 07:30:15;;;;;;;18.60;7.30;;;0.40;58.80;;;;;;5073913;28;20395;-73
2022/02/12 07:32:42;;;;;;;26.52;7.22;;;0.50;57.30;;;;;;5073577;28;20410;-73
2022/02/12 07:35:10;;;;;;;22.55;7.30;;;0.60;56.40;;;;;;5074522;28;20387;-73
2022/02/12 07:37:38;;;;;;;20.70;7.90;;;0.70;58.10;;;;;;5072603;28;20518;-74
2022/02/12 07:40:05;;;;;;;26.85;7.70;;;0.70;54.30;;;;;;5073640;28;20402;-74
2022/02/12 07:42:30;;;;;;;27.33;8.25;;;0.60;55.40;;;;;;5072604;28;20384;-75
2022/02/12 07:44:56;;;;;;;25.60;7.77;;;0.80;55.30;;;;;;5074278;28;20384;-75
2022/02/12 07:47:22;;;;;;;21.90;7.88;;;0.80;55.30;;;;;;5075094;28;20396;-77
2022/02/12 07:49:48;;;;;;;19.80;7.80;;;1.00;58.60;;;;;;5074054;28;20387;-75
2022/02/12 07:52:14;;;;;;;23.92;8.30;;;1.00;54.40;;;;;;5074060;28;20384;-75
2022/02/12 07:54:39;;;;;;;28.60;7.50;;;1.10;51.90;;;;;;5072612;28;20388;-75
2022/02/12 07:57:05;;;;;;;22.20;8.18;;;1.00;53.80;;;;;;5068335;28;20406;-75
2022/02/12 07:59:30;;;;;;;27.33;8.30;;;1.00;54.20;;;;;;5054060;28;20385;-75
2022/02/12 08:01:56;;;;;;;22.30;8.13;;;1.10;51.70;;;;;;5053114;28;20378;-75
2022/02/12 08:04:22;;;;;;;25.50;8.10;;;1.10;52.30;;;;;;5087607;28;20389;-76
2022/02/12 08:09:31;;;;;;;21.05;8.18;;;1.00;53.70;;;;;;5060824;28;20408;-73
2022/02/12 08:12:13;;;;;;;23.90;7.95;;;1.10;53.80;;;;;;5064295;28;20412;-74
2022/02/12 08:14:42;;;;;;;27.92;8.20;;;1.10;53.10;;;;;;5063306;28;20402;-75
2022/02/12 08:17:09;;;;;;;23.10;8.18;;;1.20;52.10;;;;;;5058634;28;20845;-75
2022/02/12 08:19:34;;;;;;;21.80;8.20;;;1.10;52.70;;;;;;5064070;28;20484;-74
2022/02/12 08:22:00;;;;;;;23.92;8.25;;;1.30;53.00;;;;;;5068490;28;20537;-75
2022/02/12 08:24:26;;;;;;;27.35;7.60;;;1.30;51.80;;;;;;5067855;28;20470;-74
2022/02/12 08:26:52;;;;;;;24.52;8.02;;;1.30;52.30;;;;;;5064446;28;20437;-74
2022/02/12 08:29:17;;;;;;;29.75;8.60;;;1.40;52.50;;;;;;5067282;28;20463;-75
2022/02/12 08:31:43;;;;;;;18.30;7.83;;;1.40;50.10;;;;;;5067417;28;20402;-73
2022/02/12 08:34:08;;;;;;;25.45;7.47;;;1.40;49.70;;;;;;5062562;28;20404;-74
2022/02/12 08:36:34;;;;;;;28.20;8.10;;;1.50;52.00;;;;;;5066184;28;20408;-75
2022/02/12 08:39:00;;;;;;;30.15;8.45;;;1.60;49.20;;;;;;5067474;28;20422;-74
2022/02/12 08:41:26;;;;;;;23.42;8.00;;;1.50;49.50;;;;;;5065778;28;20900;-76
2022/02/12 08:43:51;;;;;;;19.57;7.33;;;1.60;48.20;;;;;;5074807;28;20486;-74
2022/02/12 08:46:17;;;;;;;18.10;7.90;;;1.60;48.70;;;;;;5067807;28;20483;-74
2022/02/12 08:48:43;;;;;;;25.80;7.50;;;1.70;47.90;;;;;;5064466;28;20766;-75
2022/02/12 08:51:09;;;;;;;21.88;8.07;;;1.80;48.80;;;;;;5067652;28;20403;-74
2022/02/12 08:53:34;;;;;;;21.98;7.50;;;2.20;47.00;;;;;;5056361;28;20445;-74
2022/02/12 08:56:00;;;;;;;25.00;7.72;;;2.30;45.30;;;;;;5065035;28;20403;-74
2022/02/12 08:58:26;;;;;;;17.80;7.75;;;2.40;46.00;;;;;;5064060;28;20507;-75
2022/02/12 09:00:53;;;;;;;24.10;7.93;;;2.20;46.40;;;;;;5065803;28;20795;-76
2022/02/12 09:03:19;;;;;;;16.95;7.40;;;2.10;45.40;;;;;;5065182;28;20405;-74
2022/02/12 09:05:45;;;;;;;19.88;7.63;;;2.10;46.20;;;;;;5078358;28;20471;-73
2022/02/12 09:08:13;;;;;;;25.05;8.32;;;2.20;44.90;;;;;;5071514;28;20399;-73
2022/02/12 09:10:39;;;;;;;22.77;7.22;;;2.20;44.70;;;;;;5077360;28;20441;-72
2022/02/12 09:13:05;;;;;;;18.17;7.10;;;2.30;44.90;;;;;;5067371;28;20395;-73
2022/02/12 09:15:31;;;;;;;26.75;8.95;;;2.40;44.80;;;;;;5062535;28;20490;-74
2022/02/12 09:17:57;;;;;;;22.40;8.00;;;2.40;43.20;;;;;;5063301;28;20498;-74
2022/02/12 09:20:23;;;;;;;23.83;8.98;;;2.40;44.50;;;;;;5063284;28;20418;-74
2022/02/12 09:22:49;;;;;;;22.83;7.70;;;2.50;44.10;;;;;;5067697;28;20483;-73
2022/02/12 09:25:14;;;;;;;27.05;8.00;;;2.50;43.30;;;;;;5068820;28;22311;-74
2022/02/12 09:27:40;;;;;;;21.70;7.40;;;2.80;41.80;;;;;;5070683;28;20783;-74
2022/02/12 09:30:06;;;;;;;25.85;8.05;;;2.90;41.70;;;;;;5071155;28;20379;-74
2022/02/12 09:32:32;;;;;;;24.10;7.80;;;3.10;41.00;;;;;;5071173;28;20924;-73
2022/02/12 09:34:58;;;;;;;23.38;7.95;;;2.80;41.30;;;;;;5071375;28;20400;-74
2022/02/12 09:37:24;;;;;;;27.27;8.00;;;2.90;41.70;;;;;;5051193;28;20494;-73
2022/02/12 09:39:50;;;;;;;22.27;7.05;;;3.10;41.70;;;;;;5051948;28;20747;-73
2022/02/12 09:42:16;;;;;;;23.47;7.50;;;3.20;39.90;;;;;;5060530;28;20421;-73
2022/02/12 09:44:42;;;;;;;25.88;7.93;;;3.50;40.30;;;;;;5062484;28;20408;-73
2022/02/12 09:47:22;;;;;;;23.48;7.95;;;3.50;38.30;;;;;;5066393;28;20399;-73
2022/02/12 09:49:48;;;;;;;15.40;6.40;;;3.60;37.90;;;;;;5071009;28;20431;-74
2022/02/12 09:52:17;;;;;;;28.15;8.20;;;3.70;38.80;;;;;;5073884;28;20399;-76
2022/02/12 09:54:44;;;;;;;21.92;7.00;;;3.80;36.80;;;;;;5062323;28;20482;-72
2022/02/12 09:57:10;;;;;;;22.13;7.63;;;3.70;36.90;;;;;;5064121;28;20841;-74
2022/02/12 09:59:35;;;;;;;27.03;7.33;;;4.00;37.10;;;;;;5061765;28;20440;-74
2022/02/12 10:02:01;;;;;;;19.20;7.50;;;4.20;36.00;;;;;;5067761;28;20417;-74
2022/02/12 10:04:29;;;;;;;21.90;7.68;;;4.20;35.20;;;;;;5065927;28;20509;-74
2022/02/12 10:06:54;;;;;;;20.33;7.75;;;4.20;35.10;;;;;;5068175;28;20399;-73
2022/02/12 10:09:20;;;;;;;23.20;6.73;;;4.10;36.20;;;;;;5054464;28;20467;-71
2022/02/12 10:11:50;;;;;;;26.03;7.10;;;4.40;35.80;;;;;;5059730;28;20396;-70
2022/02/12 10:14:24;;;;;;;25.13;6.80;;;4.10;35.70;;;;;;5069035;28;20402;-72
2022/02/12 10:16:58;;;;;;;26.52;8.20;;;3.90;35.80;;;;;;5061260;28;20508;-72
2022/02/12 10:19:34;;;;;;;23.73;7.38;;;3.80;36.80;;;;;;5062117;28;20436;-72
2022/02/12 10:22:04;;;;;;;19.93;7.50;;;4.00;36.50;;;;;;5079137;28;20489;-72
2022/02/12 10:25:09;;;;;;;20.25;6.90;;;4.20;35.90;;;;;;5059212;28;20933;-71
2022/02/12 10:27:37;;;;;;;18.47;7.53;;;4.50;35.60;;;;;;4970672;28;20876;-71
2022/02/12 10:30:04;;;;;;;25.90;8.30;;;4.70;34.20;;;;;;4971140;28;20411;-71
2022/02/12 10:32:30;;;;;;;27.73;7.70;;;4.70;34.10;;;;;;5020716;28;20438;-70
2022/02/12 10:34:58;;;;;;;27.15;7.90;;;4.70;32.70;;;;;;5060071;28;20413;-71
2022/02/12 10:37:25;;;;;;;21.15;6.97;;;4.70;33.60;;;;;;5050537;28;20882;-71
2022/02/12 10:40:03;;;;;;;20.90;7.80;;;4.70;33.30;;;;;;5050997;28;20897;-74
2022/02/12 10:42:30;;;;;;;20.63;6.70;;;4.80;32.40;;;;;;5051022;28;20476;-75
2022/02/12 10:44:56;;;;;;;28.67;7.20;;;4.90;31.90;;;;;;5050673;28;20443;-74
2022/02/12 10:47:22;;;;;;;26.67;6.85;;;5.10;31.70;;;;;;5050228;28;20875;-73
2022/02/12 10:49:49;;;;;;;17.48;7.43;;;5.30;30.20;;;;;;5050905;28;20446;-72
2022/02/12 10:52:16;;;;;;;24.50;6.43;;;5.20;29.50;;;;;;5051375;28;20389;-73
2022/02/12 10:54:47;;;;;;;22.43;7.00;;;5.10;30.50;;;;;;5051149;28;20421;-73
2022/02/12 10:57:14;;;;;;;13.55;6.07;;;5.00;30.40;;;;;;5050543;28;20404;-74
2022/02/12 10:59:44;;;;;;;27.17;8.07;;;5.20;30.90;;;;;;5050443;28;20393;-74
2022/02/12 11:02:15;;;;;;;24.33;7.80;;;5.30;29.70;;;;;;5050555;28;20541;-73
2022/02/12 11:04:42;;;;;;;26.52;7.20;;;5.30;30.70;;;;;;5050505;28;20460;-74
2022/02/12 11:07:13;;;;;;;20.10;7.20;;;5.40;30.00;;;;;;5050273;28;20821;-73
2022/02/12 11:09:39;;;;;;;23.70;5.53;;;5.40;28.60;;;;;;5050858;28;20458;-74
2022/02/12 11:12:06;;;;;;;15.95;5.40;;;5.70;26.40;;;;;;5050993;28;20465;-74
2022/02/12 11:14:33;;;;;;;17.38;6.25;;;5.70;24.90;;;;;;5050604;28;20390;-73
2022/02/12 11:17:11;;;;;;;14.10;4.90;;;5.60;25.50;;;;;;5065912;28;20902;-73
2022/02/12 11:19:37;;;;;;;20.80;5.57;;;5.80;24.70;;;;;;5050658;28;20393;-74
2022/02/12 11:22:04;;;;;;;21.17;5.90;;;5.80;24.60;;;;;;5051136;28;20416;-73
2022/02/12 11:24:43;;;;;;;18.95;5.55;;;5.80;24.90;;;;;;5050386;28;20392;-74
2022/02/12 11:27:30;;;;;;;16.98;5.60;;;6.00;24.70;;;;;;5050055;28;20400;-73
2022/02/12 11:30:17;;;;;;;18.20;6.10;;;6.10;24.50;;;;;;5051866;28;20750;-75
2022/02/12 11:32:44;;;;;;;18.17;5.87;;;6.20;23.90;;;;;;5054709;28;20401;-75
2022/02/12 11:35:10;;;;;;;16.45;5.70;;;6.40;23.50;;;;;;5055014;28;20875;-74
2022/02/12 11:37:48;;;;;;;17.03;5.63;;;6.20;23.60;;;;;;5053682;28;20408;-74
2022/02/12 11:40:20;;;;;;;16.20;5.60;;;6.20;22.80;;;;;;5053956;28;20390;-75
2022/02/12 11:42:55;;;;;;;14.15;6.13;;;6.10;23.70;;;;;;5053965;28;20799;-73
2022/02/12 11:45:45;;;;;;;17.15;6.18;;;6.10;23.60;;;;;;5059266;28;20443;-73
2022/02/12 11:48:12;;;;;;;21.50;5.70;;;6.30;22.70;;;;;;5060201;28;20405;-74
2022/02/12 11:51:02;;;;;;;18.90;5.93;;;6.40;22.10;;;;;;5054371;28;20547;-73
2022/02/12 11:53:44;;;;;;;11.50;4.83;;;6.60;22.40;;;;;;5053621;28;20439;-73
2022/02/12 11:56:19;;;;;;;17.92;4.70;;;6.60;20.90;;;;;;5052785;28;20395;-74
2022/02/12 11:58:45;;;;;;;17.52;5.20;;;6.60;20.90;;;;;;5053481;28;20381;-73
2022/02/12 12:01:25;;;;;;;15.43;4.90;;;6.60;20.70;;;;;;5053547;28;20879;-73
2022/02/12 12:04:26;;;;;;;13.50;5.07;;;6.80;20.30;;;;;;5052749;28;20381;-73
2022/02/12 12:07:04;;;;;;;13.65;4.53;;;6.70;19.70;;;;;;5052566;28;20392;-74
2022/02/12 12:09:31;;;;;;;9.25;4.00;;;6.80;20.10;;;;;;5052909;28;20723;-74
2022/02/12 12:12:17;;;;;;;12.13;4.70;;;6.90;19.60;;;;;;5052676;28;20400;-74
2022/02/12 12:14:43;;;;;;;16.40;5.05;;;6.90;19.40;;;;;;5052461;28;20755;-73
2022/02/12 12:17:09;;;;;;;16.08;5.10;;;6.90;19.60;;;;;;5053097;28;20404;-74
2022/02/12 12:19:36;;;;;;;9.87;4.80;;;6.90;19.90;;;;;;5053396;28;20397;-73
2022/02/12 12:22:04;;;;;;;13.80;4.50;;;6.80;19.10;;;;;;5052870;28;20385;-73
2022/02/12 12:24:31;;;;;;;15.75;5.40;;;6.80;19.70;;;;;;5053163;28;20468;-73
2022/02/12 12:26:56;;;;;;;16.27;5.28;;;6.90;20.30;;;;;;5052984;28;20397;-72
2022/02/12 12:32:10;;;;;;;14.52;4.40;;;7.10;19.40;;;;;;5052730;28;20785;-74
2022/02/12 12:34:48;;;;;;;16.73;5.53;;;7.20;19.00;;;;;;5052495;28;20386;-73
2022/02/12 12:37:13;;;;;;;8.33;4.00;;;7.30;19.70;;;;;;5052290;28;20408;-73
2022/02/12 12:39:39;;;;;;;10.20;3.90;;;7.30;18.60;;;;;;5052771;28;20385;-73
2022/02/12 12:42:19;;;;;;;10.88;4.40;;;7.30;18.40;;;;;;5053142;28;20739;-74
2022/02/12 12:44:58;;;;;;;10.88;4.20;;;7.30;18.50;;;;;;5054304;28;20374;-74
2022/02/12 12:47:24;;;;;;;13.95;4.20;;;7.30;18.80;;;;;;5054970;28;20726;-74
2022/02/12 12:49:56;;;;;;;13.30;4.30;;;7.40;18.00;;;;;;5054652;28;20394;-74
2022/02/12 12:52:25;;;;;;;18.42;4.28;;;7.50;17.80;;;;;;5053295;28;20453;-73
2022/02/12 12:54:57;;;;;;;15.57;4.63;;;7.60;17.90;;;;;;5057707;28;20386;-74
2022/02/12 12:57:30;;;;;;;11.68;3.90;;;7.60;18.30;;;;;;5056456;28;20397;-73